McKenzie Bridge, Oregon
Current Conditions -  °F | °C
As of 8:15 PM on Tuesday 21 Oct 2014 (Local Time) from KBDN Reporting Station
Clear Clear  
Wind Chill: 44°   Ceiling: Unl
Heat Index: 46°   Visibility: 10mi
Dew Point: 36°   Wind: 6mph
Humidity: 66%   Direction: 210°SSW
Pressure: 30"   Gusts: NA
Location:  44.2049°N, 122.069°W
Report Text: KBDN 220315Z AUTO 21005KT 10SM CLR 08/02 A3000 RMK AO2 LTG DSNT E AND NW
Loading
Personal Weather Stations






























Interactive Weather Map
Tropical Storm Tracking
New forecast layout! Learn more

10-Day Weather Forecast

Advertisements
Track Severe Weather on mobile